sensor_id;sensor_type;location;lat;lon;timestamp;P1;durP1;ratioP1;P2;durP2;ratioP2
53931;SDS011;39844;52.496;13.482;2022-11-03T00:02:10;10.67;;;2.90;;
53931;SDS011;39844;52.496;13.482;2022-11-03T00:04:35;3.83;;;3.40;;
53931;SDS011;39844;52.496;13.482;2022-11-03T00:07:00;4.70;;;3.03;;
53931;SDS011;39844;52.496;13.482;2022-11-03T00:09:26;3.20;;;2.70;;
53931;SDS011;39844;52.496;13.482;2022-11-03T00:11:51;2.83;;;2.63;;
53931;SDS011;39844;52.496;13.482;2022-11-03T00:14:16;6.47;;;2.80;;
53931;SDS011;39844;52.496;13.482;2022-11-03T00:16:42;2.40;;;2.20;;
53931;SDS011;39844;52.496;13.482;2022-11-03T00:19:08;3.10;;;2.80;;
53931;SDS011;39844;52.496;13.482;2022-11-03T00:21:35;5.50;;;2.80;;
53931;SDS011;39844;52.496;13.482;2022-11-03T00:24:01;3.67;;;3.00;;
53931;SDS011;39844;52.496;13.482;2022-11-03T00:26:28;3.30;;;2.73;;
53931;SDS011;39844;52.496;13.482;2022-11-03T00:28:55;5.30;;;3.03;;
53931;SDS011;39844;52.496;13.482;2022-11-03T00:31:28;3.47;;;2.83;;
53931;SDS011;39844;52.496;13.482;2022-11-03T00:33:55;3.20;;;2.90;;
53931;SDS011;39844;52.496;13.482;2022-11-03T00:36:22;6.97;;;3.00;;
53931;SDS011;39844;52.496;13.482;2022-11-03T00:38:50;2.70;;;2.50;;
53931;SDS011;39844;52.496;13.482;2022-11-03T00:41:15;3.13;;;2.67;;
53931;SDS011;39844;52.496;13.482;2022-11-03T00:43:41;2.60;;;2.43;;
53931;SDS011;39844;52.496;13.482;2022-11-03T00:46:07;2.77;;;2.40;;
53931;SDS011;39844;52.496;13.482;2022-11-03T00:48:34;9.20;;;3.10;;
53931;SDS011;39844;52.496;13.482;2022-11-03T00:53:38;3.80;;;2.60;;
53931;SDS011;39844;52.496;13.482;2022-11-03T00:56:05;2.83;;;2.63;;
53931;SDS011;39844;52.496;13.482;2022-11-03T00:58:32;5.37;;;2.57;;
53931;SDS011;39844;52.496;13.482;2022-11-03T01:01:05;3.70;;;2.87;;
53931;SDS011;39844;52.496;13.482;2022-11-03T01:03:52;3.13;;;2.50;;
53931;SDS011;39844;52.496;13.482;2022-11-03T01:06:38;2.70;;;2.50;;
53931;SDS011;39844;52.496;13.482;2022-11-03T01:09:15;3.97;;;2.23;;
53931;SDS011;39844;52.496;13.482;2022-11-03T01:17:08;2.73;;;2.43;;
53931;SDS011;39844;52.496;13.482;2022-11-03T01:19:35;2.73;;;2.57;;
53931;SDS011;39844;52.496;13.482;2022-11-03T01:22:01;3.13;;;2.83;;
53931;SDS011;39844;52.496;13.482;2022-11-03T01:24:26;2.87;;;2.67;;
53931;SDS011;39844;52.496;13.482;2022-11-03T01:26:51;2.67;;;2.47;;
53931;SDS011;39844;52.496;13.482;2022-11-03T01:29:17;2.47;;;2.23;;
53931;SDS011;39844;52.496;13.482;2022-11-03T01:31:42;7.73;;;2.93;;
53931;SDS011;39844;52.496;13.482;2022-11-03T01:34:11;2.77;;;2.43;;
53931;SDS011;39844;52.496;13.482;2022-11-03T01:36:39;2.53;;;2.30;;
53931;SDS011;39844;52.496;13.482;2022-11-03T01:39:05;2.53;;;2.33;;
53931;SDS011;39844;52.496;13.482;2022-11-03T01:41:30;2.60;;;2.40;;
53931;SDS011;39844;52.496;13.482;2022-11-03T01:46:47;3.00;;;2.20;;
53931;SDS011;39844;52.496;13.482;2022-11-03T01:49:18;5.50;;;2.40;;
53931;SDS011;39844;52.496;13.482;2022-11-03T01:51:51;2.87;;;2.30;;
53931;SDS011;39844;52.496;13.482;2022-11-03T01:54:22;3.10;;;2.40;;
53931;SDS011;39844;52.496;13.482;2022-11-03T01:56:50;3.33;;;2.37;;
53931;SDS011;39844;52.496;13.482;2022-11-03T01:59:16;3.87;;;2.03;;
53931;SDS011;39844;52.496;13.482;2022-11-03T02:01:45;2.43;;;2.13;;
53931;SDS011;39844;52.496;13.482;2022-11-03T02:04:32;2.20;;;2.10;;
53931;SDS011;39844;52.496;13.482;2022-11-03T02:07:10;2.80;;;1.97;;
53931;SDS011;39844;52.496;13.482;2022-11-03T02:09:38;2.17;;;2.00;;
53931;SDS011;39844;52.496;13.482;2022-11-03T02:12:03;2.20;;;1.57;;
53931;SDS011;39844;52.496;13.482;2022-11-03T02:14:33;2.50;;;2.20;;
53931;SDS011;39844;52.496;13.482;2022-11-03T02:17:01;3.20;;;2.27;;
53931;SDS011;39844;52.496;13.482;2022-11-03T02:19:32;3.50;;;2.40;;
53931;SDS011;39844;52.496;13.482;2022-11-03T02:24:50;2.30;;;2.10;;
53931;SDS011;39844;52.496;13.482;2022-11-03T02:27:16;2.00;;;1.90;;
53931;SDS011;39844;52.496;13.482;2022-11-03T02:29:43;2.50;;;2.10;;
53931;SDS011;39844;52.496;13.482;2022-11-03T02:34:58;3.67;;;2.20;;
53931;SDS011;39844;52.496;13.482;2022-11-03T02:37:30;3.47;;;2.20;;
53931;SDS011;39844;52.496;13.482;2022-11-03T02:40:05;3.07;;;2.60;;
53931;SDS011;39844;52.496;13.482;2022-11-03T02:42:37;3.60;;;2.13;;
53931;SDS011;39844;52.496;13.482;2022-11-03T02:45:07;6.77;;;2.60;;
53931;SDS011;39844;52.496;13.482;2022-11-03T02:47:34;4.23;;;2.03;;
53931;SDS011;39844;52.496;13.482;2022-11-03T02:50:03;1.97;;;1.87;;
53931;SDS011;39844;52.496;13.482;2022-11-03T02:52:36;3.23;;;2.30;;
53931;SDS011;39844;52.496;13.482;2022-11-03T02:55:15;6.37;;;2.30;;
53931;SDS011;39844;52.496;13.482;2022-11-03T02:57:58;3.03;;;1.80;;
53931;SDS011;39844;52.496;13.482;2022-11-03T03:00:29;2.57;;;2.37;;
53931;SDS011;39844;52.496;13.482;2022-11-03T03:03:07;2.73;;;1.90;;
53931;SDS011;39844;52.496;13.482;2022-11-03T03:05:39;1.93;;;1.80;;
53931;SDS011;39844;52.496;13.482;2022-11-03T03:08:06;5.13;;;2.00;;
53931;SDS011;39844;52.496;13.482;2022-11-03T03:10:37;1.90;;;1.80;;
53931;SDS011;39844;52.496;13.482;2022-11-03T03:13:05;3.83;;;2.13;;
53931;SDS011;39844;52.496;13.482;2022-11-03T03:21:00;1.67;;;1.57;;
53931;SDS011;39844;52.496;13.482;2022-11-03T03:23:30;1.40;;;1.40;;
53931;SDS011;39844;52.496;13.482;2022-11-03T03:28:44;3.90;;;1.40;;
53931;SDS011;39844;52.496;13.482;2022-11-03T03:31:14;1.50;;;1.40;;
53931;SDS011;39844;52.496;13.482;2022-11-03T03:33:43;4.93;;;1.73;;
53931;SDS011;39844;52.496;13.482;2022-11-03T03:36:12;2.03;;;1.67;;
53931;SDS011;39844;52.496;13.482;2022-11-03T03:38:41;1.70;;;1.60;;
53931;SDS011;39844;52.496;13.482;2022-11-03T03:41:11;1.87;;;1.77;;
53931;SDS011;39844;52.496;13.482;2022-11-03T03:43:46;1.53;;;1.50;;
53931;SDS011;39844;52.496;13.482;2022-11-03T03:46:13;2.37;;;2.17;;
53931;SDS011;39844;52.496;13.482;2022-11-03T03:48:41;1.90;;;1.80;;
53931;SDS011;39844;52.496;13.482;2022-11-03T03:51:07;1.60;;;1.50;;
53931;SDS011;39844;52.496;13.482;2022-11-03T03:53:32;1.77;;;1.67;;
53931;SDS011;39844;52.496;13.482;2022-11-03T03:55:58;2.27;;;2.10;;
53931;SDS011;39844;52.496;13.482;2022-11-03T03:58:23;3.77;;;2.10;;
53931;SDS011;39844;52.496;13.482;2022-11-03T04:00:48;2.27;;;1.60;;
53931;SDS011;39844;52.496;13.482;2022-11-03T04:03:15;2.00;;;1.80;;
53931;SDS011;39844;52.496;13.482;2022-11-03T04:05:42;1.40;;;1.40;;
53931;SDS011;39844;52.496;13.482;2022-11-03T04:08:09;1.80;;;1.60;;
53931;SDS011;39844;52.496;13.482;2022-11-03T04:10:34;2.27;;;1.60;;
53931;SDS011;39844;52.496;13.482;2022-11-03T04:13:00;4.87;;;1.70;;
53931;SDS011;39844;52.496;13.482;2022-11-03T04:15:44;1.47;;;1.47;;
53931;SDS011;39844;52.496;13.482;2022-11-03T04:18:21;3.33;;;1.70;;
53931;SDS011;39844;52.496;13.482;2022-11-03T04:21:05;1.93;;;1.70;;
53931;SDS011;39844;52.496;13.482;2022-11-03T04:23:53;2.30;;;2.10;;
53931;SDS011;39844;52.496;13.482;2022-11-03T04:26:19;2.20;;;1.70;;
53931;SDS011;39844;52.496;13.482;2022-11-03T04:28:48;2.50;;;1.90;;
53931;SDS011;39844;52.496;13.482;2022-11-03T04:31:17;2.23;;;2.13;;
53931;SDS011;39844;52.496;13.482;2022-11-03T04:33:44;1.80;;;1.70;;
53931;SDS011;39844;52.496;13.482;2022-11-03T04:36:14;2.10;;;2.00;;
53931;SDS011;39844;52.496;13.482;2022-11-03T04:38:43;4.63;;;2.10;;
53931;SDS011;39844;52.496;13.482;2022-11-03T04:41:11;5.23;;;2.40;;
53931;SDS011;39844;52.496;13.482;2022-11-03T04:43:39;2.53;;;1.90;;
53931;SDS011;39844;52.496;13.482;2022-11-03T04:46:07;6.93;;;1.80;;
53931;SDS011;39844;52.496;13.482;2022-11-03T04:48:35;3.90;;;2.30;;
53931;SDS011;39844;52.496;13.482;2022-11-03T04:51:01;2.50;;;2.30;;
53931;SDS011;39844;52.496;13.482;2022-11-03T04:53:34;2.97;;;2.03;;
53931;SDS011;39844;52.496;13.482;2022-11-03T04:55:59;2.07;;;1.97;;
53931;SDS011;39844;52.496;13.482;2022-11-03T04:58:26;1.73;;;1.63;;
53931;SDS011;39844;52.496;13.482;2022-11-03T05:00:55;2.67;;;2.20;;
53931;SDS011;39844;52.496;13.482;2022-11-03T05:03:24;3.43;;;2.03;;
53931;SDS011;39844;52.496;13.482;2022-11-03T05:06:00;3.53;;;2.30;;
53931;SDS011;39844;52.496;13.482;2022-11-03T05:08:35;2.27;;;2.03;;
53931;SDS011;39844;52.496;13.482;2022-11-03T05:11:00;3.10;;;2.37;;
53931;SDS011;39844;52.496;13.482;2022-11-03T05:13:36;6.63;;;2.33;;
53931;SDS011;39844;52.496;13.482;2022-11-03T05:16:02;3.77;;;1.93;;
53931;SDS011;39844;52.496;13.482;2022-11-03T05:18:30;1.80;;;1.70;;
53931;SDS011;39844;52.496;13.482;2022-11-03T05:21:00;2.00;;;1.90;;
53931;SDS011;39844;52.496;13.482;2022-11-03T05:23:28;1.80;;;1.70;;
53931;SDS011;39844;52.496;13.482;2022-11-03T05:26:00;2.77;;;2.03;;
53931;SDS011;39844;52.496;13.482;2022-11-03T05:28:27;2.17;;;2.07;;
53931;SDS011;39844;52.496;13.482;2022-11-03T05:30:55;1.90;;;1.80;;
53931;SDS011;39844;52.496;13.482;2022-11-03T05:36:00;2.67;;;2.13;;
53931;SDS011;39844;52.496;13.482;2022-11-03T05:38:31;2.03;;;1.93;;
53931;SDS011;39844;52.496;13.482;2022-11-03T05:40:57;4.40;;;2.43;;
53931;SDS011;39844;52.496;13.482;2022-11-03T05:43:23;1.90;;;1.80;;
53931;SDS011;39844;52.496;13.482;2022-11-03T05:45:50;1.60;;;1.60;;
53931;SDS011;39844;52.496;13.482;2022-11-03T05:48:32;3.47;;;2.03;;
53931;SDS011;39844;52.496;13.482;2022-11-03T05:51:01;2.20;;;2.00;;
53931;SDS011;39844;52.496;13.482;2022-11-03T05:53:38;5.87;;;1.80;;
53931;SDS011;39844;52.496;13.482;2022-11-03T05:56:10;5.83;;;2.17;;
53931;SDS011;39844;52.496;13.482;2022-11-03T05:58:41;2.43;;;1.97;;
53931;SDS011;39844;52.496;13.482;2022-11-03T06:03:44;1.93;;;1.83;;
53931;SDS011;39844;52.496;13.482;2022-11-03T06:06:25;4.00;;;2.20;;
53931;SDS011;39844;52.496;13.482;2022-11-03T06:08:54;6.17;;;3.13;;
53931;SDS011;39844;52.496;13.482;2022-11-03T06:11:23;6.60;;;3.83;;
53931;SDS011;39844;52.496;13.482;2022-11-03T06:13:53;3.50;;;2.37;;
53931;SDS011;39844;52.496;13.482;2022-11-03T06:19:01;3.00;;;2.53;;
53931;SDS011;39844;52.496;13.482;2022-11-03T06:21:36;2.60;;;2.23;;
53931;SDS011;39844;52.496;13.482;2022-11-03T06:24:02;4.63;;;2.43;;
53931;SDS011;39844;52.496;13.482;2022-11-03T06:26:27;2.00;;;1.90;;
53931;SDS011;39844;52.496;13.482;2022-11-03T06:28:52;1.73;;;1.63;;
53931;SDS011;39844;52.496;13.482;2022-11-03T06:31:20;1.63;;;1.53;;
53931;SDS011;39844;52.496;13.482;2022-11-03T06:33:46;2.53;;;1.73;;
53931;SDS011;39844;52.496;13.482;2022-11-03T06:36:20;3.13;;;1.97;;
53931;SDS011;39844;52.496;13.482;2022-11-03T06:38:55;2.10;;;1.83;;
53931;SDS011;39844;52.496;13.482;2022-11-03T06:41:28;1.87;;;1.63;;
53931;SDS011;39844;52.496;13.482;2022-11-03T06:43:56;1.80;;;1.70;;
53931;SDS011;39844;52.496;13.482;2022-11-03T06:46:25;1.43;;;1.33;;
53931;SDS011;39844;52.496;13.482;2022-11-03T06:48:54;2.43;;;1.93;;
53931;SDS011;39844;52.496;13.482;2022-11-03T06:51:24;3.40;;;1.63;;
53931;SDS011;39844;52.496;13.482;2022-11-03T06:53:52;1.90;;;1.80;;
53931;SDS011;39844;52.496;13.482;2022-11-03T06:56:20;2.10;;;2.00;;
53931;SDS011;39844;52.496;13.482;2022-11-03T06:58:47;1.60;;;1.50;;
53931;SDS011;39844;52.496;13.482;2022-11-03T07:01:20;2.50;;;1.43;;
53931;SDS011;39844;52.496;13.482;2022-11-03T07:03:48;1.77;;;1.67;;
53931;SDS011;39844;52.496;13.482;2022-11-03T07:06:20;1.63;;;1.53;;
53931;SDS011;39844;52.496;13.482;2022-11-03T07:08:54;1.33;;;1.33;;
53931;SDS011;39844;52.496;13.482;2022-11-03T07:11:23;2.77;;;1.43;;
53931;SDS011;39844;52.496;13.482;2022-11-03T07:14:15;1.70;;;1.60;;
53931;SDS011;39844;52.496;13.482;2022-11-03T07:16:49;1.70;;;1.60;;
53931;SDS011;39844;52.496;13.482;2022-11-03T07:19:18;1.77;;;1.67;;
53931;SDS011;39844;52.496;13.482;2022-11-03T07:21:51;3.50;;;1.73;;
53931;SDS011;39844;52.496;13.482;2022-11-03T07:26:47;5.23;;;1.77;;
53931;SDS011;39844;52.496;13.482;2022-11-03T07:29:17;2.00;;;1.70;;
53931;SDS011;39844;52.496;13.482;2022-11-03T07:31:46;2.93;;;1.80;;
53931;SDS011;39844;52.496;13.482;2022-11-03T07:34:13;1.57;;;1.50;;
53931;SDS011;39844;52.496;13.482;2022-11-03T07:36:42;1.73;;;1.63;;
53931;SDS011;39844;52.496;13.482;2022-11-03T07:39:08;2.20;;;1.60;;
53931;SDS011;39844;52.496;13.482;2022-11-03T07:41:40;4.20;;;1.60;;
53931;SDS011;39844;52.496;13.482;2022-11-03T07:44:12;1.23;;;1.23;;
53931;SDS011;39844;52.496;13.482;2022-11-03T07:46:40;5.33;;;2.17;;
53931;SDS011;39844;52.496;13.482;2022-11-03T07:49:07;1.43;;;1.40;;
53931;SDS011;39844;52.496;13.482;2022-11-03T07:51:43;1.50;;;1.40;;
53931;SDS011;39844;52.496;13.482;2022-11-03T07:54:18;1.43;;;1.43;;
53931;SDS011;39844;52.496;13.482;2022-11-03T07:56:46;2.37;;;1.90;;
53931;SDS011;39844;52.496;13.482;2022-11-03T07:59:18;2.83;;;1.73;;
53931;SDS011;39844;52.496;13.482;2022-11-03T08:01:46;2.63;;;1.70;;
53931;SDS011;39844;52.496;13.482;2022-11-03T08:04:17;1.30;;;1.30;;
53931;SDS011;39844;52.496;13.482;2022-11-03T08:06:45;2.20;;;1.70;;
53931;SDS011;39844;52.496;13.482;2022-11-03T08:09:12;1.10;;;1.10;;
53931;SDS011;39844;52.496;13.482;2022-11-03T08:11:37;3.87;;;1.87;;
53931;SDS011;39844;52.496;13.482;2022-11-03T08:14:02;2.03;;;1.87;;
53931;SDS011;39844;52.496;13.482;2022-11-03T08:16:28;1.47;;;1.37;;
53931;SDS011;39844;52.496;13.482;2022-11-03T08:18:53;2.43;;;1.37;;
53931;SDS011;39844;52.496;13.482;2022-11-03T08:21:18;1.23;;;1.23;;
53931;SDS011;39844;52.496;13.482;2022-11-03T08:23:44;1.80;;;1.33;;
53931;SDS011;39844;52.496;13.482;2022-11-03T08:26:09;1.83;;;1.40;;
53931;SDS011;39844;52.496;13.482;2022-11-03T08:28:34;4.27;;;1.70;;
53931;SDS011;39844;52.496;13.482;2022-11-03T08:30:59;2.80;;;1.80;;
53931;SDS011;39844;52.496;13.482;2022-11-03T08:33:32;2.77;;;1.70;;
53931;SDS011;39844;52.496;13.482;2022-11-03T08:35:59;1.53;;;1.40;;
53931;SDS011;39844;52.496;13.482;2022-11-03T08:38:25;3.33;;;1.53;;
53931;SDS011;39844;52.496;13.482;2022-11-03T08:40:51;1.93;;;1.83;;
53931;SDS011;39844;52.496;13.482;2022-11-03T08:43:17;6.47;;;2.00;;
53931;SDS011;39844;52.496;13.482;2022-11-03T08:45:42;2.03;;;1.80;;
53931;SDS011;39844;52.496;13.482;2022-11-03T08:48:07;1.73;;;1.63;;
53931;SDS011;39844;52.496;13.482;2022-11-03T08:50:33;2.03;;;1.40;;
53931;SDS011;39844;52.496;13.482;2022-11-03T08:52:58;2.47;;;1.30;;
53931;SDS011;39844;52.496;13.482;2022-11-03T08:55:24;5.57;;;1.57;;
53931;SDS011;39844;52.496;13.482;2022-11-03T08:57:49;1.37;;;1.10;;
53931;SDS011;39844;52.496;13.482;2022-11-03T09:00:15;1.20;;;1.20;;
53931;SDS011;39844;52.496;13.482;2022-11-03T09:02:41;1.93;;;1.20;;
53931;SDS011;39844;52.496;13.482;2022-11-03T09:05:07;3.50;;;1.37;;
53931;SDS011;39844;52.496;13.482;2022-11-03T09:07:33;1.40;;;1.30;;
53931;SDS011;39844;52.496;13.482;2022-11-03T09:09:59;1.20;;;1.10;;
53931;SDS011;39844;52.496;13.482;2022-11-03T09:12:24;1.50;;;1.40;;
53931;SDS011;39844;52.496;13.482;2022-11-03T09:14:49;1.40;;;1.33;;
53931;SDS011;39844;52.496;13.482;2022-11-03T09:17:14;1.40;;;1.33;;
53931;SDS011;39844;52.496;13.482;2022-11-03T09:19:40;4.73;;;1.33;;
53931;SDS011;39844;52.496;13.482;2022-11-03T09:22:05;4.33;;;1.60;;
53931;SDS011;39844;52.496;13.482;2022-11-03T09:24:30;3.60;;;1.40;;
53931;SDS011;39844;52.496;13.482;2022-11-03T09:26:56;2.23;;;1.20;;
53931;SDS011;39844;52.496;13.482;2022-11-03T09:29:21;1.37;;;1.33;;
53931;SDS011;39844;52.496;13.482;2022-11-03T09:31:46;3.00;;;1.30;;
53931;SDS011;39844;52.496;13.482;2022-11-03T09:34:12;1.13;;;1.00;;
53931;SDS011;39844;52.496;13.482;2022-11-03T09:36:37;1.40;;;1.30;;
53931;SDS011;39844;52.496;13.482;2022-11-03T09:39:03;2.33;;;1.50;;
53931;SDS011;39844;52.496;13.482;2022-11-03T09:41:29;2.40;;;0.97;;
53931;SDS011;39844;52.496;13.482;2022-11-03T09:43:55;1.33;;;1.23;;
53931;SDS011;39844;52.496;13.482;2022-11-03T09:46:22;1.20;;;1.10;;
53931;SDS011;39844;52.496;13.482;2022-11-03T09:48:48;2.47;;;1.03;;
53931;SDS011;39844;52.496;13.482;2022-11-03T09:51:15;1.80;;;1.00;;
53931;SDS011;39844;52.496;13.482;2022-11-03T09:53:44;3.23;;;1.60;;
53931;SDS011;39844;52.496;13.482;2022-11-03T09:56:09;1.87;;;1.53;;
53931;SDS011;39844;52.496;13.482;2022-11-03T09:58:35;1.73;;;1.63;;
53931;SDS011;39844;52.496;13.482;2022-11-03T10:01:00;1.93;;;1.20;;
53931;SDS011;39844;52.496;13.482;2022-11-03T10:03:26;1.90;;;1.50;;
53931;SDS011;39844;52.496;13.482;2022-11-03T10:05:52;1.70;;;1.60;;
53931;SDS011;39844;52.496;13.482;2022-11-03T10:08:24;4.60;;;2.33;;
53931;SDS011;39844;52.496;13.482;2022-11-03T10:10:53;4.27;;;1.83;;
53931;SDS011;39844;52.496;13.482;2022-11-03T10:13:38;2.83;;;1.50;;
53931;SDS011;39844;52.496;13.482;2022-11-03T10:16:06;1.57;;;1.07;;
53931;SDS011;39844;52.496;13.482;2022-11-03T10:18:34;1.27;;;1.17;;
53931;SDS011;39844;52.496;13.482;2022-11-03T10:21:05;2.17;;;1.20;;
53931;SDS011;39844;52.496;13.482;2022-11-03T10:23:38;5.47;;;1.67;;
53931;SDS011;39844;52.496;13.482;2022-11-03T10:26:07;1.13;;;1.13;;
53931;SDS011;39844;52.496;13.482;2022-11-03T10:28:35;2.33;;;1.20;;
53931;SDS011;39844;52.496;13.482;2022-11-03T10:31:02;1.83;;;1.13;;
53931;SDS011;39844;52.496;13.482;2022-11-03T10:33:51;1.30;;;1.20;;
53931;SDS011;39844;52.496;13.482;2022-11-03T10:38:44;2.20;;;1.03;;
53931;SDS011;39844;52.496;13.482;2022-11-03T10:41:11;1.43;;;1.13;;
53931;SDS011;39844;52.496;13.482;2022-11-03T10:43:54;1.50;;;1.40;;
53931;SDS011;39844;52.496;13.482;2022-11-03T10:46:22;3.00;;;1.57;;
53931;SDS011;39844;52.496;13.482;2022-11-03T10:49:00;1.07;;;1.03;;
53931;SDS011;39844;52.496;13.482;2022-11-03T10:51:34;5.73;;;1.20;;
53931;SDS011;39844;52.496;13.482;2022-11-03T10:54:01;5.30;;;1.40;;
53931;SDS011;39844;52.496;13.482;2022-11-03T10:56:27;3.40;;;1.07;;
53931;SDS011;39844;52.496;13.482;2022-11-03T10:58:53;1.23;;;1.13;;
53931;SDS011;39844;52.496;13.482;2022-11-03T11:01:20;3.73;;;1.30;;
53931;SDS011;39844;52.496;13.482;2022-11-03T11:03:45;1.53;;;1.03;;
53931;SDS011;39844;52.496;13.482;2022-11-03T11:06:22;3.27;;;1.10;;
53931;SDS011;39844;52.496;13.482;2022-11-03T11:08:50;3.23;;;1.40;;
53931;SDS011;39844;52.496;13.482;2022-11-03T11:11:21;2.97;;;1.20;;
53931;SDS011;39844;52.496;13.482;2022-11-03T11:16:59;2.57;;;1.20;;
53931;SDS011;39844;52.496;13.482;2022-11-03T11:19:26;2.77;;;1.10;;
53931;SDS011;39844;52.496;13.482;2022-11-03T11:28:10;1.40;;;1.30;;
53931;SDS011;39844;52.496;13.482;2022-11-03T11:30:04;1.00;;;0.87;;
53931;SDS011;39844;52.496;13.482;2022-11-03T11:35:09;2.43;;;1.07;;
53931;SDS011;39844;52.496;13.482;2022-11-03T11:37:50;3.47;;;1.30;;
53931;SDS011;39844;52.496;13.482;2022-11-03T11:48:31;1.40;;;1.30;;
53931;SDS011;39844;52.496;13.482;2022-11-03T11:50:57;1.70;;;1.17;;
53931;SDS011;39844;52.496;13.482;2022-11-03T11:53:23;2.30;;;1.50;;
53931;SDS011;39844;52.496;13.482;2022-11-03T11:55:50;4.43;;;1.37;;
53931;SDS011;39844;52.496;13.482;2022-11-03T12:01:03;2.33;;;1.07;;
53931;SDS011;39844;52.496;13.482;2022-11-03T12:03:42;2.03;;;1.20;;
53931;SDS011;39844;52.496;13.482;2022-11-03T12:06:11;1.40;;;1.17;;
53931;SDS011;39844;52.496;13.482;2022-11-03T12:08:36;2.57;;;0.87;;
53931;SDS011;39844;52.496;13.482;2022-11-03T12:11:03;2.43;;;1.03;;
53931;SDS011;39844;52.496;13.482;2022-11-03T12:16:09;1.20;;;1.10;;
53931;SDS011;39844;52.496;13.482;2022-11-03T12:18:50;1.83;;;1.20;;
53931;SDS011;39844;52.496;13.482;2022-11-03T12:24:24;1.07;;;1.03;;
53931;SDS011;39844;52.496;13.482;2022-11-03T12:26:56;1.33;;;1.10;;
53931;SDS011;39844;52.496;13.482;2022-11-03T12:29:21;2.33;;;1.00;;
53931;SDS011;39844;52.496;13.482;2022-11-03T12:31:47;1.40;;;1.30;;
53931;SDS011;39844;52.496;13.482;2022-11-03T12:34:13;1.93;;;0.97;;
53931;SDS011;39844;52.496;13.482;2022-11-03T12:36:38;3.13;;;1.47;;
53931;SDS011;39844;52.496;13.482;2022-11-03T12:39:04;1.00;;;1.00;;
53931;SDS011;39844;52.496;13.482;2022-11-03T12:41:29;2.43;;;1.13;;
53931;SDS011;39844;52.496;13.482;2022-11-03T12:43:54;3.70;;;1.17;;
53931;SDS011;39844;52.496;13.482;2022-11-03T12:46:20;1.03;;;1.03;;
53931;SDS011;39844;52.496;13.482;2022-11-03T12:48:46;1.47;;;1.07;;
53931;SDS011;39844;52.496;13.482;2022-11-03T12:51:12;2.03;;;1.17;;
53931;SDS011;39844;52.496;13.482;2022-11-03T12:53:39;2.13;;;1.30;;
53931;SDS011;39844;52.496;13.482;2022-11-03T12:56:05;1.60;;;1.50;;
53931;SDS011;39844;52.496;13.482;2022-11-03T12:58:32;2.97;;;1.10;;
53931;SDS011;39844;52.496;13.482;2022-11-03T13:00:57;4.23;;;1.30;;
53931;SDS011;39844;52.496;13.482;2022-11-03T13:03:23;2.67;;;1.30;;
53931;SDS011;39844;52.496;13.482;2022-11-03T13:05:48;1.17;;;1.07;;
53931;SDS011;39844;52.496;13.482;2022-11-03T13:08:13;3.77;;;1.20;;
53931;SDS011;39844;52.496;13.482;2022-11-03T13:10:38;4.07;;;1.50;;
53931;SDS011;39844;52.496;13.482;2022-11-03T13:13:04;2.40;;;1.33;;
53931;SDS011;39844;52.496;13.482;2022-11-03T13:15:30;1.33;;;1.23;;
53931;SDS011;39844;52.496;13.482;2022-11-03T13:17:55;2.00;;;1.10;;
53931;SDS011;39844;52.496;13.482;2022-11-03T13:20:20;1.00;;;1.00;;
53931;SDS011;39844;52.496;13.482;2022-11-03T13:22:46;1.33;;;1.23;;
53931;SDS011;39844;52.496;13.482;2022-11-03T13:25:12;3.50;;;1.00;;
53931;SDS011;39844;52.496;13.482;2022-11-03T13:27:37;1.00;;;1.00;;
53931;SDS011;39844;52.496;13.482;2022-11-03T13:30:03;1.63;;;1.20;;
53931;SDS011;39844;52.496;13.482;2022-11-03T13:32:29;2.27;;;1.37;;
53931;SDS011;39844;52.496;13.482;2022-11-03T13:34:54;1.80;;;1.33;;
53931;SDS011;39844;52.496;13.482;2022-11-03T13:37:20;3.43;;;1.37;;
53931;SDS011;39844;52.496;13.482;2022-11-03T13:39:45;1.13;;;1.07;;
53931;SDS011;39844;52.496;13.482;2022-11-03T13:42:10;1.37;;;1.27;;
53931;SDS011;39844;52.496;13.482;2022-11-03T13:44:36;1.30;;;1.10;;
53931;SDS011;39844;52.496;13.482;2022-11-03T13:47:01;3.00;;;1.00;;
53931;SDS011;39844;52.496;13.482;2022-11-03T13:49:27;2.53;;;1.10;;
53931;SDS011;39844;52.496;13.482;2022-11-03T13:51:53;2.13;;;1.30;;
53931;SDS011;39844;52.496;13.482;2022-11-03T13:54:18;1.73;;;1.20;;
53931;SDS011;39844;52.496;13.482;2022-11-03T13:56:43;1.80;;;1.20;;
53931;SDS011;39844;52.496;13.482;2022-11-03T13:59:09;4.60;;;1.57;;
53931;SDS011;39844;52.496;13.482;2022-11-03T14:01:34;1.83;;;1.13;;
53931;SDS011;39844;52.496;13.482;2022-11-03T14:03:59;1.53;;;1.43;;
53931;SDS011;39844;52.496;13.482;2022-11-03T14:06:25;2.53;;;1.30;;
53931;SDS011;39844;52.496;13.482;2022-11-03T14:08:50;1.30;;;1.20;;
53931;SDS011;39844;52.496;13.482;2022-11-03T14:11:15;3.57;;;1.23;;
53931;SDS011;39844;52.496;13.482;2022-11-03T14:14:01;4.00;;;1.20;;
53931;SDS011;39844;52.496;13.482;2022-11-03T14:16:26;2.20;;;1.40;;
53931;SDS011;39844;52.496;13.482;2022-11-03T14:18:51;1.10;;;1.10;;
53931;SDS011;39844;52.496;13.482;2022-11-03T14:21:17;4.93;;;1.40;;
53931;SDS011;39844;52.496;13.482;2022-11-03T14:23:42;1.57;;;1.40;;
53931;SDS011;39844;52.496;13.482;2022-11-03T14:26:07;2.60;;;1.30;;
53931;SDS011;39844;52.496;13.482;2022-11-03T14:28:33;1.30;;;1.00;;
53931;SDS011;39844;52.496;13.482;2022-11-03T14:30:58;3.00;;;1.30;;
53931;SDS011;39844;52.496;13.482;2022-11-03T14:33:25;1.27;;;1.20;;
53931;SDS011;39844;52.496;13.482;2022-11-03T14:35:50;2.13;;;1.17;;
53931;SDS011;39844;52.496;13.482;2022-11-03T14:38:16;3.00;;;1.57;;
53931;SDS011;39844;52.496;13.482;2022-11-03T14:40:41;6.30;;;1.50;;
53931;SDS011;39844;52.496;13.482;2022-11-03T14:43:26;1.47;;;1.23;;
53931;SDS011;39844;52.496;13.482;2022-11-03T14:45:52;1.23;;;1.23;;
53931;SDS011;39844;52.496;13.482;2022-11-03T14:48:17;1.43;;;1.13;;
53931;SDS011;39844;52.496;13.482;2022-11-03T14:50:42;3.10;;;1.50;;
53931;SDS011;39844;52.496;13.482;2022-11-03T14:53:08;4.67;;;1.60;;
53931;SDS011;39844;52.496;13.482;2022-11-03T14:55:33;1.73;;;1.53;;
53931;SDS011;39844;52.496;13.482;2022-11-03T14:57:58;4.70;;;1.60;;
53931;SDS011;39844;52.496;13.482;2022-11-03T15:00:24;5.07;;;1.50;;
53931;SDS011;39844;52.496;13.482;2022-11-03T15:02:49;1.77;;;1.67;;
53931;SDS011;39844;52.496;13.482;2022-11-03T15:05:14;4.60;;;2.30;;
53931;SDS011;39844;52.496;13.482;2022-11-03T15:07:59;2.33;;;2.00;;
53931;SDS011;39844;52.496;13.482;2022-11-03T15:10:25;2.27;;;1.87;;
53931;SDS011;39844;52.496;13.482;2022-11-03T15:12:50;1.70;;;1.60;;
53931;SDS011;39844;52.496;13.482;2022-11-03T15:15:15;3.10;;;2.00;;
53931;SDS011;39844;52.496;13.482;2022-11-03T15:17:41;4.03;;;2.10;;
53931;SDS011;39844;52.496;13.482;2022-11-03T15:20:06;2.10;;;1.83;;
53931;SDS011;39844;52.496;13.482;2022-11-03T15:22:32;2.67;;;1.97;;
53931;SDS011;39844;52.496;13.482;2022-11-03T15:24:57;1.77;;;1.63;;
53931;SDS011;39844;52.496;13.482;2022-11-03T15:27:23;1.73;;;1.40;;
53931;SDS011;39844;52.496;13.482;2022-11-03T15:29:48;1.90;;;1.60;;
53931;SDS011;39844;52.496;13.482;2022-11-03T15:32:13;4.30;;;2.10;;
53931;SDS011;39844;52.496;13.482;2022-11-03T15:34:39;4.50;;;1.60;;
53931;SDS011;39844;52.496;13.482;2022-11-03T15:37:04;1.43;;;1.40;;
53931;SDS011;39844;52.496;13.482;2022-11-03T15:39:29;2.00;;;1.30;;
53931;SDS011;39844;52.496;13.482;2022-11-03T15:41:55;1.20;;;1.20;;
53931;SDS011;39844;52.496;13.482;2022-11-03T15:44:21;3.07;;;1.57;;
53931;SDS011;39844;52.496;13.482;2022-11-03T15:46:46;1.70;;;1.60;;